SAAP/PRA METAR and TAF weather

Enter ICAO airport designator
Station Type Date Time Source
SAAP METAR 2022/11/21 12:35 UTC NOAA

SAAP 211235Z 16010KT 9000 -RA SCT005 OVC040 17/16 Q1016


Station Type Date Time Source
SAAP Decoded METAR 2022/11/21 12:35 UTC NOAA

Parana Aerodrome, Argentina (SAAP) 31-47S 060-29W 78M
Nov 21, 2022 - 07:35 AM EST / 2022.11.21 1235 UTC
Wind: from the SSE (160 degrees) at 12 MPH (10 KT):0
Visibility: 5 mile(s):0
Sky conditions: overcast
Weather: light rain
Temperature: 62 F (17 C)
Dew Point: 60 F (16 C)
Relative Humidity: 93%
Pressure (altimeter): 30.00 in. Hg (1016 hPa)
ob: SAAP 211235Z 16010KT 9000 -RA SCT005 OVC040 17/16 Q1016
cycle: 12

Station Type Date Time Source
SAAP TAF 2022/09/17 18:03 UTC NOAA

TAF TAF SAAP 171700Z 1718/1818 05015G25KT CAVOK TX26/1718Z TN17/1810Z
BECMG 1721/1800 02010G20KT
BECMG 1810/1812 VRB05KT 9999 BKN050 PROB40 1812/1815 09005KT 5000 TSRA FEW040CB BKN050

Example: see airport list